Terminal Aerodrome Forecast
Issued by NWS Wilmington, OH

Current Version | Previous Version | Text Only | Print | Product List | Glossary Off
Versions: 1 2 3 4 5 6 7 8 9 10 11 12 13 14 15 16 17 18 19 20 21 22

562
FTUS41 KILN 082101 AAC
TAFCVG
TAF AMD
KCVG 082101Z 0821/0924 28006KT P6SM SCT005 BKN020
      TEMPO 0821/0823 1SM -SN BKN005
     FM082300 29010KT 3SM -SN BKN008 OVC015
     FM090200 28012G20KT 5SM -SN BKN008 OVC015
     FM090600 28012G20KT 5SM -SN SCT008 OVC012=

USA.gov is the U.S. government's official web portal to all federal, state and local government web resources and services.